createdAt,value
2023-12-09T00:01:21.576Z,101898.69
2023-12-09T00:03:49.909Z,101907.84
2023-12-09T00:06:18.200Z,101910.28
2023-12-09T00:08:46.490Z,101910.28
2023-12-09T00:11:14.647Z,101903.06
2023-12-09T00:13:44.104Z,101905.91
2023-12-09T00:16:12.334Z,101865.25
2023-12-09T00:18:40.573Z,101909.13
2023-12-09T00:21:09.268Z,101905.66
2023-12-09T00:23:47.085Z,101902.94
2023-12-09T00:26:16.516Z,101886.81
2023-12-09T00:28:45.988Z,101904.75
2023-12-09T00:31:14.200Z,101903.97
2023-12-09T00:33:42.843Z,101906.56
2023-12-09T00:36:11.455Z,101891.69
2023-12-09T00:38:41.169Z,101896.09
2023-12-09T00:41:09.314Z,101897.00
2023-12-09T00:43:37.367Z,101890.16
2023-12-09T00:46:07.344Z,101878.53
2023-12-09T00:48:35.720Z,101879.03
2023-12-09T00:51:04.088Z,101877.88
2023-12-09T00:53:32.180Z,101879.81
2023-12-09T00:56:00.230Z,101876.34
2023-12-09T00:58:28.513Z,101871.81
2023-12-09T01:00:56.615Z,101876.34
2023-12-09T01:03:26.164Z,101870.28
2023-12-09T01:05:54.303Z,101875.69
2023-12-09T01:08:22.389Z,101872.31
2023-12-09T01:10:50.462Z,101874.13
2023-12-09T01:13:18.545Z,101867.16
2023-12-09T01:15:46.740Z,101862.41
2023-12-09T01:18:15.058Z,101865.09
2023-12-09T01:20:44.670Z,101870.66
2023-12-09T01:23:14.312Z,101862.91
2023-12-09T01:25:42.383Z,101865.34
2023-12-09T01:28:10.437Z,101871.56
2023-12-09T01:30:38.704Z,101859.28
2023-12-09T01:33:07.054Z,101868.97
2023-12-09T01:35:35.234Z,101862.78
2023-12-09T01:38:04.790Z,101862.00
2023-12-09T01:40:32.933Z,101852.06
2023-12-09T01:43:01.008Z,101867.03
2023-12-09T01:45:29.212Z,101862.00
2023-12-09T01:47:57.379Z,101849.34
2023-12-09T01:50:25.796Z,101856.56
2023-12-09T01:52:54.295Z,101853.34
2023-12-09T01:55:24.183Z,101867.28
2023-12-09T01:57:53.587Z,101852.56
2023-12-09T02:00:22.860Z,101846.66
2023-12-09T02:02:51.260Z,101859.66
2023-12-09T02:05:19.491Z,101864.84
2023-12-09T02:07:47.556Z,101857.84
2023-12-09T02:10:15.681Z,101857.97
2023-12-09T02:12:50.235Z,101861.47
2023-12-09T02:15:24.314Z,101852.81
2023-12-09T02:17:56.547Z,101820.31
2023-12-09T02:20:25.169Z,101857.22
2023-12-09T02:23:06.307Z,101853.84
2023-12-09T02:25:34.611Z,101850.38
2023-12-09T02:28:06.540Z,101845.31
2023-12-09T02:30:45.833Z,101828.41
2023-12-09T02:33:16.854Z,101836.94
2023-12-09T02:35:47.739Z,101843.00
2023-12-09T02:38:18.460Z,101837.69
2023-12-09T02:40:47.463Z,101830.34
2023-12-09T02:43:16.388Z,101840.53
2023-12-09T02:45:46.805Z,101828.53
2023-12-09T02:48:15.142Z,101844.00
2023-12-09T02:50:43.386Z,101841.44
2023-12-09T02:53:11.455Z,101842.47
2023-12-09T02:55:40.900Z,101821.94
2023-12-09T02:58:08.962Z,101831.75
2023-12-09T03:00:37.119Z,101832.91
2023-12-09T03:03:05.529Z,101823.34
2023-12-09T03:05:33.729Z,101826.84
2023-12-09T03:08:01.221Z,101784.81
2023-12-09T03:10:29.266Z,101820.69
2023-12-09T03:12:58.732Z,101802.63
2023-12-09T03:15:26.852Z,101818.63
2023-12-09T03:17:55.254Z,101810.75
2023-12-09T03:20:23.434Z,101809.19
2023-12-09T03:22:51.530Z,101812.56
2023-12-09T03:25:19.602Z,101807.38
2023-12-09T03:27:47.729Z,101808.28
2023-12-09T03:30:17.375Z,101805.84
2023-12-09T03:32:45.482Z,101805.97
2023-12-09T03:35:13.666Z,101805.31
2023-12-09T03:37:41.740Z,101801.03
2023-12-09T03:40:12.767Z,101793.94
2023-12-09T03:42:40.919Z,101791.63
2023-12-09T03:45:09.753Z,101785.41
2023-12-09T03:47:39.292Z,101788.13
2023-12-09T03:50:08.316Z,101789.94
2023-12-09T03:52:36.373Z,101784.88
2023-12-09T03:55:05.213Z,101786.81
2023-12-09T03:57:33.520Z,101769.81
2023-12-09T04:00:01.692Z,101785.25
2023-12-09T04:02:30.079Z,101778.41
2023-12-09T04:05:00.269Z,101788.88
2023-12-09T04:07:28.635Z,101776.50
2023-12-09T04:09:56.699Z,101778.28
2023-12-09T04:12:25.067Z,101782.69
2023-12-09T04:14:53.323Z,101769.81
2023-12-09T04:17:22.983Z,101779.97
2023-12-09T04:19:53.071Z,101757.00
2023-12-09T04:22:22.691Z,101764.34
2023-12-09T04:24:50.767Z,101762.66
2023-12-09T04:27:19.181Z,101754.03
2023-12-09T04:29:47.257Z,101717.94
2023-12-09T04:32:15.342Z,101752.88
2023-12-09T04:34:44.419Z,101755.34
2023-12-09T04:37:12.473Z,101751.84
2023-12-09T04:39:41.992Z,101738.31
2023-12-09T04:42:10.188Z,101755.09
2023-12-09T04:44:38.273Z,101750.03
2023-12-09T04:47:08.187Z,101749.91
2023-12-09T04:49:36.560Z,101748.25
2023-12-09T04:52:05.392Z,101738.19
2023-12-09T04:54:33.547Z,101742.06
2023-12-09T04:57:03.327Z,101747.34
2023-12-09T04:59:31.434Z,101748.25
2023-12-09T05:01:59.533Z,101742.28
2023-12-09T05:04:27.723Z,101744.75
2023-12-09T05:06:55.833Z,101750.81
2023-12-09T05:09:24.710Z,101749.00
2023-12-09T05:11:52.883Z,101750.03
2023-12-09T05:14:22.851Z,101742.94
2023-12-09T05:16:50.907Z,101750.16
2023-12-09T05:19:19.304Z,101748.47
2023-12-09T05:21:48.041Z,101744.22
2023-12-09T05:24:16.262Z,101746.03
2023-12-09T05:26:44.392Z,101738.69
2023-12-09T05:29:12.491Z,101743.19
2023-12-09T05:31:42.831Z,101722.44
2023-12-09T05:34:11.127Z,101742.41
2023-12-09T05:36:40.231Z,101741.41
2023-12-09T05:39:08.581Z,101741.94
2023-12-09T05:41:36.636Z,101755.09
2023-12-09T05:44:04.760Z,101746.44
2023-12-09T05:46:32.875Z,101633.34
2023-12-09T05:49:02.697Z,101746.44
2023-12-09T05:51:30.914Z,101752.50
2023-12-09T05:53:59.060Z,101756.00
2023-12-09T05:56:27.234Z,101759.34
2023-12-09T05:58:55.500Z,101758.44
2023-12-09T06:01:23.656Z,101757.53
2023-12-09T06:03:51.757Z,101758.31
2023-12-09T06:06:21.320Z,101754.06
2023-12-09T06:08:50.425Z,101750.97
2023-12-09T06:11:18.580Z,101753.56
2023-12-09T06:13:47.348Z,101756.03
2023-12-09T06:16:19.602Z,101757.69
2023-12-09T06:18:48.336Z,101759.38
2023-12-09T06:21:23.113Z,101755.91
2023-12-09T06:23:51.920Z,101751.50
2023-12-09T06:26:20.502Z,101735.81
2023-12-09T06:28:48.652Z,101748.94
2023-12-09T06:31:16.734Z,101747.25
2023-12-09T06:33:45.015Z,101748.28
2023-12-09T06:36:13.280Z,101748.03
2023-12-09T06:38:43.069Z,101741.34
2023-12-09T06:41:11.216Z,101753.84
2023-12-09T06:43:40.833Z,101731.06
2023-12-09T06:46:08.997Z,101747.53
2023-12-09T06:48:39.569Z,101749.22
2023-12-09T06:51:09.690Z,101744.94
2023-12-09T06:53:40.787Z,101736.31
2023-12-09T06:56:20.062Z,101737.84
2023-12-09T06:58:48.164Z,101744.56
2023-12-09T07:01:23.109Z,101739.28
2023-12-09T07:03:51.808Z,101741.75
2023-12-09T07:06:25.965Z,101729.66
2023-12-09T07:08:55.105Z,101728.34
2023-12-09T07:11:25.254Z,101730.56
2023-12-09T07:13:53.458Z,101736.22
2023-12-09T07:16:21.653Z,101731.69
2023-12-09T07:18:52.450Z,101726.66
2023-12-09T07:21:21.056Z,101735.81
2023-12-09T07:23:49.269Z,101735.94
2023-12-09T07:26:17.559Z,101721.88
2023-12-09T07:28:47.250Z,101709.50
2023-12-09T07:31:15.473Z,101718.50
2023-12-09T07:33:43.752Z,101715.69
2023-12-09T07:36:12.146Z,101720.06
2023-12-09T07:38:40.325Z,101714.13
2023-12-09T07:41:08.499Z,101702.41
2023-12-09T07:43:39.476Z,101714.00
2023-12-09T07:46:10.494Z,101715.69
2023-12-09T07:48:38.765Z,101704.34
2023-12-09T07:51:07.400Z,101703.69
2023-12-09T07:53:35.652Z,101695.81
2023-12-09T07:56:03.731Z,101703.31
2023-12-09T07:58:31.780Z,101666.22
2023-12-09T08:01:01.572Z,101693.25
2023-12-09T08:03:33.920Z,101675.75
2023-12-09T08:06:03.909Z,101717.66
2023-12-09T08:08:32.112Z,101711.72
2023-12-09T08:11:02.462Z,101699.47
2023-12-09T08:13:30.549Z,101697.91
2023-12-09T08:15:58.569Z,101702.94
2023-12-09T08:18:27.375Z,101694.41
2023-12-09T08:20:57.686Z,101702.66
2023-12-09T08:23:25.820Z,101695.03
2023-12-09T08:25:53.979Z,101709.75
2023-12-09T08:28:22.076Z,101698.94
2023-12-09T08:30:50.136Z,101698.28
2023-12-09T08:33:18.317Z,101692.22
2023-12-09T08:35:46.527Z,101680.38
2023-12-09T08:38:16.242Z,101698.03
2023-12-09T08:40:44.367Z,101674.84
2023-12-09T08:43:12.468Z,101688.84
2023-12-09T08:45:40.608Z,101686.28
2023-12-09T08:48:09.516Z,101692.47
2023-12-09T08:50:37.741Z,101681.34
2023-12-09T08:53:05.797Z,101682.38
2023-12-09T08:55:35.724Z,101679.00
2023-12-09T08:58:04.404Z,101670.91
2023-12-09T09:00:32.514Z,101676.44
2023-12-09T09:03:00.670Z,101663.53
2023-12-09T09:05:28.819Z,101663.91
2023-12-09T09:07:57.145Z,101664.78
2023-12-09T09:10:25.234Z,101660.53
2023-12-09T09:12:54.769Z,101631.28
2023-12-09T09:15:23.196Z,101655.78
2023-12-09T09:17:52.485Z,101651.66
2023-12-09T09:20:20.702Z,101644.91
2023-12-09T09:22:49.087Z,101646.72
2023-12-09T09:25:17.616Z,101646.72
2023-12-09T09:27:45.865Z,101632.91
2023-12-09T09:30:16.015Z,101624.56
2023-12-09T09:32:44.192Z,101613.75
2023-12-09T09:35:12.605Z,101628.53
2023-12-09T09:37:40.767Z,101600.84
2023-12-09T09:40:12.888Z,101626.97
2023-12-09T09:42:45.861Z,101635.25
2023-12-09T09:45:27.209Z,101624.03
2023-12-09T09:47:58.741Z,101624.28
2023-12-09T09:50:28.453Z,101625.28
2023-12-09T09:52:56.842Z,101626.84
2023-12-09T09:55:29.465Z,101619.88
2023-12-09T09:57:57.954Z,101597.72
2023-12-09T10:00:29.934Z,101587.16
2023-12-09T10:03:00.232Z,101612.16
2023-12-09T10:05:29.761Z,101600.31
2023-12-09T10:07:58.368Z,101590.22
2023-12-09T10:10:26.601Z,101603.88
2023-12-09T10:12:55.091Z,101601.28
2023-12-09T10:15:23.275Z,101591.50
2023-12-09T10:17:53.278Z,101598.69
2023-12-09T10:20:21.402Z,101602.84
2023-12-09T10:22:49.822Z,101600.25
2023-12-09T10:25:23.460Z,101596.91
2023-12-09T10:27:51.668Z,101584.09
2023-12-09T10:30:20.562Z,101585.91
2023-12-09T10:32:49.558Z,101590.66
2023-12-09T10:35:20.625Z,101584.03
2023-12-09T10:37:50.908Z,101572.69
2023-12-09T10:40:23.698Z,101572.47
2023-12-09T10:42:53.528Z,101570.25
2023-12-09T10:45:21.848Z,101578.88
2023-12-09T10:47:50.009Z,101569.69
2023-12-09T10:50:19.621Z,101534.59
2023-12-09T10:52:47.716Z,101572.28
2023-12-09T10:55:16.747Z,101507.56
2023-12-09T10:57:45.878Z,101560.16
2023-12-09T11:00:16.530Z,101529.31
2023-12-09T11:02:47.711Z,101542.72
2023-12-09T11:05:16.813Z,101556.22
2023-12-09T11:07:48.273Z,101553.66
2023-12-09T11:10:16.918Z,101553.41
2023-12-09T11:12:46.222Z,101541.94
2023-12-09T11:15:24.491Z,101542.50
2023-12-09T11:17:55.147Z,101536.44
2023-12-09T11:20:24.833Z,101528.56
2023-12-09T11:22:55.076Z,101517.00
2023-12-09T11:25:27.026Z,101528.81
2023-12-09T11:27:56.160Z,101522.19
2023-12-09T11:30:32.770Z,101529.03
2023-12-09T11:33:01.376Z,101519.38
2023-12-09T11:35:30.288Z,101518.00
2023-12-09T11:38:01.448Z,101519.03
2023-12-09T11:40:31.324Z,101522.38
2023-12-09T11:42:59.801Z,101515.84
2023-12-09T11:45:28.507Z,101514.06
2023-12-09T11:47:58.561Z,101481.34
2023-12-09T11:50:30.438Z,101483.16
2023-12-09T11:53:01.105Z,101502.28
2023-12-09T11:55:30.556Z,101452.78
2023-12-09T11:57:58.928Z,101378.84
2023-12-09T12:00:27.482Z,101497.25
2023-12-09T12:02:57.643Z,101101.50
2023-12-09T12:05:28.624Z,101505.75
2023-12-09T12:07:57.211Z,101442.16
2023-12-09T12:10:27.042Z,101134.06
2023-12-09T12:12:55.769Z,101280.47
2023-12-09T12:15:24.643Z,101436.22
2023-12-09T12:17:53.324Z,101469.84
2023-12-09T12:20:22.365Z,101471.78
2023-12-09T12:22:50.790Z,101300.63
2023-12-09T12:25:19.036Z,101462.22
2023-12-09T12:27:48.579Z,101454.25
2023-12-09T12:30:16.978Z,101453.13
2023-12-09T12:32:45.336Z,101451.53
2023-12-09T12:35:13.778Z,101446.28
2023-12-09T12:37:42.855Z,101453.34
2023-12-09T12:40:12.377Z,101451.31
2023-12-09T12:42:40.781Z,101450.66
2023-12-09T12:45:20.357Z,101445.59
2023-12-09T12:47:49.594Z,101452.69
2023-12-09T12:50:18.440Z,101426.28
2023-12-09T12:52:46.975Z,101450.66
2023-12-09T12:55:15.243Z,101439.44
2023-12-09T12:57:44.970Z,101427.19
2023-12-09T13:00:15.615Z,101441.09
2023-12-09T13:02:45.388Z,101434.81
2023-12-09T13:05:13.739Z,101429.41
2023-12-09T13:07:41.836Z,101420.41
2023-12-09T13:10:10.130Z,101416.81
2023-12-09T13:12:38.394Z,101424.13
2023-12-09T13:15:07.806Z,101409.88
2023-12-09T13:17:36.316Z,101411.78
2023-12-09T13:20:08.098Z,101414.59
2023-12-09T13:22:36.967Z,101412.13
2023-12-09T13:25:06.748Z,101399.78
2023-12-09T13:27:35.403Z,101412.38
2023-12-09T13:30:06.034Z,101409.66
2023-12-09T13:32:34.222Z,101400.91
2023-12-09T13:35:02.431Z,101414.72
2023-12-09T13:37:32.178Z,101409.19
2023-12-09T13:40:00.589Z,101411.66
2023-12-09T13:42:29.469Z,101413.22
2023-12-09T13:44:57.779Z,101395.72
2023-12-09T13:47:26.269Z,101311.41
2023-12-09T13:49:54.459Z,101400.53
2023-12-09T13:52:23.915Z,101400.53
2023-12-09T13:54:53.381Z,101402.31
2023-12-09T13:57:21.480Z,101393.56
2023-12-09T13:59:49.584Z,101396.81
2023-12-09T14:02:17.687Z,101389.84
2023-12-09T14:04:46.050Z,101398.38
2023-12-09T14:07:15.041Z,101393.63
2023-12-09T14:09:43.328Z,101374.16
2023-12-09T14:12:13.149Z,101393.72
2023-12-09T14:14:41.310Z,101339.53
2023-12-09T14:17:11.234Z,101385.63
2023-12-09T14:19:39.911Z,101393.34
2023-12-09T14:22:11.134Z,101401.34
2023-12-09T14:24:39.378Z,101402.78
2023-12-09T14:27:07.679Z,101392.47
2023-12-09T14:29:37.161Z,101389.75
2023-12-09T14:32:05.753Z,101388.63
2023-12-09T14:34:34.513Z,101381.06
2023-12-09T14:37:04.427Z,101390.59
2023-12-09T14:39:32.765Z,101388.69
2023-12-09T14:42:01.078Z,101386.09
2023-12-09T14:44:29.363Z,101386.78
2023-12-09T14:46:58.818Z,101371.72
2023-12-09T14:49:27.172Z,101370.81
2023-12-09T14:51:55.561Z,101379.03
2023-12-09T14:54:23.750Z,101364.09
2023-12-09T14:56:53.072Z,101377.47
2023-12-09T14:59:21.519Z,101361.88
2023-12-09T15:01:49.771Z,101374.13
2023-12-09T15:04:19.384Z,101365.59
2023-12-09T15:06:49.941Z,101368.31
2023-12-09T15:09:18.931Z,101380.53
2023-12-09T15:11:48.658Z,101365.19
2023-12-09T15:14:16.850Z,101353.97
2023-12-09T15:16:45.054Z,101338.00
2023-12-09T15:19:13.397Z,101335.69
2023-12-09T15:21:43.314Z,101343.09
2023-12-09T15:24:11.989Z,101342.19
2023-12-09T15:26:40.656Z,101343.22
2023-12-09T15:29:08.837Z,101344.22
2023-12-09T15:31:36.960Z,101337.41
2023-12-09T15:34:05.806Z,101336.38
2023-12-09T15:36:34.494Z,101333.69
2023-12-09T15:39:04.867Z,101339.84
2023-12-09T15:41:34.356Z,101335.72
2023-12-09T15:44:02.493Z,101342.78
2023-12-09T15:46:31.047Z,101347.16
2023-12-09T15:49:01.349Z,101339.31
2023-12-09T15:51:29.648Z,101352.44
2023-12-09T15:53:57.752Z,101347.41
2023-12-09T15:56:27.257Z,101338.88
2023-12-09T15:58:55.580Z,101337.09
2023-12-09T16:01:23.917Z,101332.94
2023-12-09T16:03:53.486Z,101337.31
2023-12-09T16:06:21.851Z,101333.06
2023-12-09T16:08:50.083Z,101329.56
2023-12-09T16:11:18.166Z,101331.25
2023-12-09T16:13:47.755Z,101319.91
2023-12-09T16:16:16.239Z,101320.25
2023-12-09T16:18:44.587Z,101316.75
2023-12-09T16:21:12.804Z,101330.00
2023-12-09T16:23:41.166Z,101325.50
2023-12-09T16:26:12.147Z,101310.47
2023-12-09T16:28:41.077Z,101313.94
2023-12-09T16:31:15.747Z,101299.81
2023-12-09T16:33:44.427Z,101292.63
2023-12-09T16:36:13.669Z,101316.28
2023-12-09T16:38:41.753Z,101294.28
2023-12-09T16:41:09.818Z,101295.97
2023-12-09T16:43:38.099Z,101304.63
2023-12-09T16:46:06.709Z,101303.72
2023-12-09T16:48:36.420Z,101297.66
2023-12-09T16:51:04.822Z,101295.97
2023-12-09T16:53:32.893Z,101284.66
2023-12-09T16:56:01.655Z,101255.22
2023-12-09T16:58:29.808Z,101258.72
2023-12-09T17:00:58.075Z,101290.81
2023-12-09T17:03:26.499Z,101280.38
2023-12-09T17:05:56.020Z,101289.03
2023-12-09T17:08:24.184Z,101262.00
2023-12-09T17:10:52.338Z,101250.44
2023-12-09T17:13:21.317Z,101260.31
2023-12-09T17:15:49.808Z,101267.16
2023-12-09T17:18:18.227Z,101260.75
2023-12-09T17:20:47.599Z,101254.44
2023-12-09T17:23:17.491Z,101251.66
2023-12-09T17:25:45.712Z,101245.50
2023-12-09T17:28:13.935Z,101241.25
2023-12-09T17:30:42.044Z,101236.88
2023-12-09T17:33:10.237Z,101240.34
2023-12-09T17:35:38.449Z,101227.19
2023-12-09T17:38:06.591Z,101237.41
2023-12-09T17:40:36.322Z,101235.84
2023-12-09T17:43:04.429Z,101245.50
2023-12-09T17:45:32.519Z,101234.41
2023-12-09T17:48:00.678Z,101235.31
2023-12-09T17:50:28.791Z,101224.75
2023-12-09T17:52:56.878Z,101223.97
2023-12-09T17:55:27.771Z,101221.59
2023-12-09T17:57:58.981Z,101219.16
2023-12-09T18:00:27.233Z,101218.06
2023-12-09T18:02:55.562Z,101160.38
2023-12-09T18:05:23.880Z,101198.09
2023-12-09T18:07:52.186Z,101194.50
2023-12-09T18:10:20.361Z,101200.09
2023-12-09T18:12:48.532Z,101199.41
2023-12-09T18:15:18.100Z,101196.84
2023-12-09T18:17:46.396Z,101179.69
2023-12-09T18:20:14.632Z,101196.28
2023-12-09T18:22:43.373Z,101196.41
2023-12-09T18:25:13.475Z,101197.75
2023-12-09T18:27:42.298Z,101187.13
2023-12-09T18:30:11.458Z,101201.34
2023-12-09T18:32:41.047Z,101197.06
2023-12-09T18:35:12.360Z,101197.19
2023-12-09T18:37:41.140Z,101179.38
2023-12-09T18:40:11.072Z,101194.38
2023-12-09T18:42:39.754Z,101184.41
2023-12-09T18:45:12.264Z,101186.53
2023-12-09T18:47:41.774Z,101188.31
2023-12-09T18:50:10.602Z,101186.75
2023-12-09T18:52:38.739Z,101169.97
2023-12-09T18:55:07.936Z,101188.31
2023-12-09T18:57:36.216Z,101184.06
2023-12-09T19:00:05.689Z,101165.38
2023-12-09T19:02:34.625Z,101172.31
2023-12-09T19:05:04.432Z,101172.41
2023-12-09T19:07:32.826Z,101173.31
2023-12-09T19:10:04.881Z,101171.75
2023-12-09T19:12:34.245Z,101145.75
2023-12-09T19:15:03.696Z,101157.38
2023-12-09T19:17:32.433Z,101170.75
2023-12-09T19:20:00.722Z,101180.72
2023-12-09T19:22:30.488Z,101177.38
2023-12-09T19:24:58.698Z,101171.53
2023-12-09T19:27:27.256Z,101175.00
2023-12-09T19:29:55.747Z,101170.41
2023-12-09T19:32:24.052Z,101173.31
2023-12-09T19:34:52.843Z,101161.09
2023-12-09T19:37:20.993Z,101165.25
2023-12-09T19:39:50.546Z,101162.78
2023-12-09T19:42:19.481Z,101151.47
2023-12-09T19:44:47.654Z,101148.78
2023-12-09T19:47:15.727Z,101145.63
2023-12-09T19:49:43.943Z,101141.25
2023-12-09T19:52:12.183Z,101146.41
2023-12-09T19:54:40.279Z,101128.81
2023-12-09T19:57:13.068Z,101128.81
2023-12-09T19:59:42.319Z,101134.09
2023-12-09T20:02:10.379Z,101131.41
2023-12-09T20:04:38.586Z,101133.84
2023-12-09T20:07:06.777Z,101134.75
2023-12-09T20:09:34.936Z,101133.97
2023-12-09T20:12:03.018Z,101132.28
2023-12-09T20:14:33.430Z,101121.53
2023-12-09T20:17:01.535Z,101132.97
2023-12-09T20:19:29.712Z,101126.69
2023-12-09T20:21:58.052Z,101126.69
2023-12-09T20:24:26.173Z,101132.72
2023-12-09T20:26:54.390Z,101124.66
2023-12-09T20:29:23.092Z,101110.34
2023-12-09T20:31:52.542Z,101125.44
2023-12-09T20:34:20.799Z,101088.13
2023-12-09T20:36:50.198Z,101111.66
2023-12-09T20:39:18.322Z,101108.78
2023-12-09T20:41:46.424Z,101099.81
2023-12-09T20:44:14.504Z,101101.59
2023-12-09T20:46:42.704Z,101115.03
2023-12-09T20:49:13.689Z,101101.16
2023-12-09T20:51:45.645Z,101109.78
2023-12-09T20:54:14.171Z,101090.63
2023-12-09T20:56:42.390Z,101012.59
2023-12-09T20:59:10.613Z,101083.66
2023-12-09T21:01:44.853Z,101080.31
2023-12-09T21:04:14.553Z,101091.03
2023-12-09T21:06:42.788Z,101088.38
2023-12-09T21:09:11.152Z,101096.13
2023-12-09T21:11:39.362Z,101088.16
2023-12-09T21:14:08.816Z,101087.25
2023-12-09T21:16:37.688Z,101091.50
2023-12-09T21:19:05.983Z,101088.03
2023-12-09T21:21:35.569Z,101078.50
2023-12-09T21:24:03.706Z,101078.50
2023-12-09T21:26:31.963Z,101082.88
2023-12-09T21:29:00.051Z,101072.25
2023-12-09T21:31:28.564Z,101077.94
2023-12-09T21:33:56.689Z,101071.91
2023-12-09T21:36:25.580Z,101077.16
2023-12-09T21:38:55.130Z,101062.03
2023-12-09T21:41:24.294Z,101036.81
2023-12-09T21:43:52.797Z,101073.78
2023-12-09T21:46:22.887Z,101073.59
2023-12-09T21:48:52.578Z,101067.53
2023-12-09T21:51:21.781Z,101070.09
2023-12-09T21:53:50.327Z,101068.53
2023-12-09T21:56:23.379Z,101053.41
2023-12-09T21:58:52.181Z,101070.22
2023-12-09T22:01:21.097Z,101076.16
2023-12-09T22:03:49.727Z,101082.22
2023-12-09T22:06:18.174Z,101065.97
2023-12-09T22:08:46.726Z,101070.22
2023-12-09T22:11:14.832Z,101063.94
2023-12-09T22:13:44.678Z,101066.03
2023-12-09T22:16:13.500Z,101072.91
2023-12-09T22:18:41.707Z,101034.13
2023-12-09T22:21:11.226Z,101067.31
2023-12-09T22:23:39.458Z,100872.59
2023-12-09T22:26:07.824Z,101064.63
2023-12-09T22:28:39.978Z,101078.75
2023-12-09T22:31:10.323Z,101085.69
2023-12-09T22:33:41.122Z,101066.06
2023-12-09T22:36:11.031Z,101075.81
2023-12-09T22:38:39.115Z,101072.47
2023-12-09T22:41:07.504Z,101082.00
2023-12-09T22:43:35.859Z,101056.22
2023-12-09T22:46:04.467Z,101034.91
2023-12-09T22:48:34.072Z,101070.09
2023-12-09T22:51:02.270Z,101068.31
2023-12-09T22:53:30.390Z,101060.59
2023-12-09T22:56:12.414Z,101059.69
2023-12-09T22:58:42.531Z,101064.84
2023-12-09T23:01:11.342Z,101063.06
2023-12-09T23:03:40.980Z,101059.81
2023-12-09T23:06:09.916Z,101059.81
2023-12-09T23:08:40.484Z,101050.28
2023-12-09T23:11:08.884Z,101053.06
2023-12-09T23:13:37.011Z,100939.34
2023-12-09T23:16:05.836Z,101047.34
2023-12-09T23:18:34.369Z,101056.63
2023-12-09T23:21:05.244Z,101060.88
2023-12-09T23:23:33.437Z,101049.38
2023-12-09T23:26:01.537Z,101055.72
2023-12-09T23:28:29.790Z,101011.84
2023-12-09T23:30:57.950Z,101058.53
2023-12-09T23:33:26.404Z,101039.84
2023-12-09T23:35:54.656Z,101041.09
2023-12-09T23:38:24.124Z,101048.56
2023-12-09T23:40:52.833Z,101049.56
2023-12-09T23:43:20.960Z,101049.69
2023-12-09T23:45:49.192Z,101056.50
2023-12-09T23:48:18.990Z,101035.22
2023-12-09T23:50:47.413Z,101053.16
2023-12-09T23:53:15.897Z,101048.88
2023-12-09T23:55:45.461Z,101045.41
2023-12-09T23:58:15.730Z,101042.63
